Terminal Aerodrome Forecast
Issued by NWS Anchorage, AK

Home | Current Version | Previous Version | Text Only | Print | Product List | Glossary On
Versions: 1 2 3 4 5 6 7 8 9 10 11 12 13 14 15 16 17 18 19 20 21 22 23
000
FTAK31 PANC 252338
TAFANC
TAF
PANC 252338Z 2600/2706 33004KT P6SM FEW010 SCT045 OVC080
      TEMPO 2600/2604 BKN045
     FM260900 VRB03KT P6SM -RA SCT005 OVC020
     FM262200 31005KT P6SM VCSH SCT015 BKN035=

USA.gov is the U.S. government's official web portal to all federal, state and local government web resources and services.